Terminal Aerodrome Forecast
Issued by NWS

Home | Current Version | Previous Version | Graphics & Text | Print | Product List | Glossary On
Versions: 1 2 3 4 5 6 7 8 9 10 11 12 13 14 15 16 17 18 19
635
FTUS43 KBIS 262328
TAFDIK
TAF
KDIK 262328Z 2700/2724 29008KT P6SM VCTS SCT080CB BKN120
     FM270200 30004KT P6SM SCT200
     FM272100 02006KT P6SM BKN060=

USA.gov is the U.S. government's official web portal to all federal, state and local government web resources and services.